x

Columbia River Bar - 20nm West Of Columbia River Mouth (46029) Wave Buoy

3:50am - Fri 28th Nov 2014 All times are PST. -8 hours from GMT.

  • Sig Wave height 10.5ft
  • Swell Direction
  • Peak Period 14s
  • Average Period 7s
  • Wind
    18mph, 22mph gusts
  • Sea Temp 56°f
  • Air Temp 56°f
  • Sea Pressure 1004.1mb
  • Columbia River Bar - 20nm West Of Columbia River Mouth
  • Columbia River Bar - 20nm West Of Columbia River Mouth

More Historic Weather Station data

Upgrade to MSW Pro to gain access to the past 30 days of data for over 8000 Wavebouys and Weather Stations around the globe.

Join Pro

Comparision Forecast

View Surf forecast
   
Fri 11/28 3:50am 10.5ft 14s 7s 18 22 mph 1004.1mb 56f 56f
2:50am 10.5ft 14s 8s 18 22 mph 1005mb 56f 56f
1:50am 11ft 14s 8s 20 22 mph 1005.5mb 56f 56f
12:50am 11ft 15s 8s 20 25 mph 1006mb 56f 56f
Thu 11/27 11:50pm 11ft 12s 8s 22 25 mph 1006.7mb 56f 56f
10:50pm 12ft 14s 8s 20 25 mph 1007.1mb 56f 56f
9:50pm 10.5ft 14s 7s 20 25 mph 1007.6mb 56f 56f
8:50pm 11ft 15s 8s 22 27 mph 1008mb 56f 56f
7:50pm 12ft 14s 8s 22 25 mph 1008.2mb 56f 57f
6:50pm 13.5ft 14s 8s 22 25 mph 1008.4mb 56f 57f
5:50pm 13ft 15s 8s 22 27 mph 1008.8mb 56f 57f
4:50pm 12ft 15s 7s 22 27 mph 1008.7mb 56f 57f
3:50pm 12ft 11s 7s 22 25 mph 1009mb 56f 57f
2:50pm 11ft 11s 7s 22 27 mph 1009.1mb 56f 57f
1:50pm 10.5ft 12s 7s 25 29 mph 1009.6mb 56f 56f
12:50pm 9.5ft 12s 7s 25 29 mph 1010.1mb 56f 57f
11:50am 9.5ft 11s 7s 25 29 mph 1010.5mb 56f 57f
10:50am 9.5ft 9s 7s 20 25 mph 1011.2mb 56f 57f
9:50am 9.5ft 12s 7s 22 25 mph 1011.2mb 56f 57f
8:50am 10.5ft 10s 7s 18 22 mph 1011.1mb 56f 57f
7:50am 11ft 12s 7s 18 20 mph 1010.8mb 56f 57f
6:50am 10.5ft 11s 7s 18 20 mph 1010.9mb 56f 57f
5:50am 11.5ft 10s 7s 20 22 mph 1011.1mb 56f 57f
4:50am 10.5ft 10s 7s 20 25 mph 1011.5mb 56f 57f
3:50am 10ft 11s 7s 20 22 mph 1011.3mb 56f 57f
2:50am 10ft 8s 7s 18 20 mph 1011.6mb 56f 57f
1:50am 9.5ft 8s 6s 22 27 mph 1011.2mb 56f 57f
12:50am 10ft 8s 6s 29 36 mph 1011.2mb 56f 57f
Wed 11/26 11:50pm 10ft 7s 6s 29 36 mph 1011.5mb 56f 57f
10:50pm 8.5ft 8s 6s 31 38 mph 1011.2mb 56f 56f
9:50pm 8ft 8s 5s 29 36 mph 1011.2mb 56f 57f
8:50pm 7.5ft 6s 5s 29 34 mph 1011.6mb 56f 57f
7:50pm 7ft 6s 5s 27 31 mph 1012.1mb 56f 57f
6:50pm 7ft 7s 5s 29 36 mph 1012.2mb 56f 57f
5:50pm 7ft 12s 5s 27 31 mph 1012.9mb 56f 57f
4:50pm 6ft 12s 5s 25 31 mph 1014.1mb 56f 57f
3:50pm 6ft 11s 5s 22 25 mph 1014.6mb 56f 57f
2:50pm 6ft 13s 6s 20 25 mph 1015.3mb 56f 56f
1:50pm 6.5ft 12s 6s 18 22 mph 1016.3mb 56f 56f
12:50pm 6.5ft 11s 6s 25 29 mph 1016.7mb 56f 56f
11:50am 6.5ft 13s 6s 18 20 mph 1018.4mb 55f 55f
10:50am 6.5ft 11s 6s 20 25 mph 1019.5mb 55f 55f
9:50am 6ft 11s 6s 18 20 mph 1020mb 55f 55f
8:50am 7ft 11s 6s 18 25 mph 1019.8mb 55f 54f
7:50am 7ft 10s 6s 18 22 mph 1019.8mb 55f 54f
6:50am 7ft 11s 6s 20 22 mph 1020.4mb 55f 55f
5:50am 7ft 12s 6s 20 25 mph 1020.8mb 55f 55f
4:50am 7ft 11s 6s 20 25 mph 1021.2mb 55f 55f
3:50am 7ft 11s 6s 20 25 mph 1021.7mb 55f 55f
2:50am 7ft 11s 6s 22 25 mph 1022.5mb 55f 55f
1:50am 7ft 12s 6s 20 25 mph 1022.7mb 55f 55f
12:50am 8ft 11s 6s 20 22 mph 1023.4mb 55f 55f
Tue 11/25 11:50pm 7ft 13s 6s 18 20 mph 1023.8mb 55f 55f
10:50pm 7ft 13s 6s 18 20 mph 1023.9mb 55f 56f
9:50pm 8ft 13s 7s 20 25 mph 1023.9mb 55f 56f
8:50pm 7ft 14s 6s 18 20 mph 1023.9mb 55f 56f
7:50pm 7.5ft 13s 6s 18 20 mph 1024mb 55f 56f
6:50pm 8ft 11s 7s 18 22 mph 1023.7mb 55f 56f
5:50pm 8ft 12s 6s 20 25 mph 1024.6mb 55f 57f
4:50pm 8ft 13s 6s 18 20 mph 1024.5mb 55f 57f
3:50pm 8ft 12s 7s 18 20 mph 1024.5mb 55f 57f
2:50pm 9ft 12s 7s 16 20 mph 1024.3mb 55f 57f
1:50pm 9ft 11s 7s 18 22 mph 1024.4mb 55f 57f
12:50pm 8.5ft 12s 7s 18 22 mph 1024.5mb 55f 56f
11:50am 9ft 13s 7s 22 25 mph 1025.1mb 55f 57f
10:50am 9ft 12s 6s 22 27 mph 1025.1mb 55f 57f
9:50am 9ft 13s 7s 22 27 mph 1024.7mb 55f 57f
8:50am 8.5ft 13s 7s 20 25 mph 1024.4mb 55f 57f
7:50am 9ft 12s 7s 20 22 mph 1024mb 55f 57f
6:50am 9ft 12s 7s 20 27 mph 1023.8mb 55f 56f
5:50am 9ft 7s 6s 22 27 mph 1023.2mb 55f 56f
4:50am 9.5ft 13s 7s 20 27 mph 1023.1mb 55f 56f
3:50am 10ft 13s 7s 22 27 mph 1023.1mb 55f 56f
2:50am 10ft 12s 7s 18 22 mph 1022.9mb 56f 56f
1:50am 9ft 11s 7s 18 20 mph 1022.9mb 56f 56f
12:50am 10ft 13s 7s 18 20 mph 1023.2mb 56f 56f
Mon 11/24 11:50pm 9.5ft 12s 7s 16 20 mph 1023.3mb 56f 56f
10:50pm 10ft 13s 7s 18 22 mph 1022.8mb 56f 56f
9:50pm 10.5ft 12s 8s 18 22 mph 1022.4mb 56f 56f
8:50pm 9.5ft 13s 7s 18 20 mph 1022.3mb 55f 56f
7:50pm 10ft 12s 7s 20 22 mph 1021.8mb 56f 56f
6:50pm 9.5ft 14s 6s 25 29 mph 1021.1mb 56f 56f
5:50pm 10ft 11s 6s 27 31 mph 1021.4mb 56f 55f
4:50pm 10ft 14s 6s 27 31 mph 1021.4mb 56f 55f
3:50pm 11ft 14s 7s 29 36 mph 1021.3mb 56f 54f
2:50pm 9.5ft 14s 7s 27 34 mph 1021.7mb 56f 54f
1:50pm 8.5ft 14s 7s 27 31 mph 1022.6mb 55f 55f
12:50pm 9.5ft 13s 8s 25 29 mph 1023.1mb 55f 55f